TimeEDT,TemperatureF,Dew PointF,Humidity,Sea Level PressureIn,VisibilityMPH,Wind Direction,Wind SpeedMPH,Gust SpeedMPH,PrecipitationIn,Events,Conditions,WindDirDegrees,DateUTC
12:53 AM,70.0,64.9,84,30.01,10.0,SSE,4.6,-,N/A,,Partly Cloudy,160,2013-10-04 04:53:00
1:53 AM,69.1,64.9,87,30.01,10.0,Calm,Calm,-,N/A,,Scattered Clouds,0,2013-10-04 05:53:00
2:53 AM,66.0,64.0,93,30.02,10.0,Calm,Calm,-,N/A,,Clear,0,2013-10-04 06:53:00
3:53 AM,64.0,63.0,96,30.01,5.0,Calm,Calm,-,N/A,,Clear,0,2013-10-04 07:53:00
4:53 AM,64.9,64.0,97,30.01,6.0,Calm,Calm,-,N/A,,Clear,0,2013-10-04 08:53:00
5:53 AM,64.0,63.0,96,30.02,8.0,Calm,Calm,-,N/A,,Clear,0,2013-10-04 09:53:00
6:53 AM,64.9,63.0,93,30.04,6.0,Calm,Calm,-,N/A,,Mostly Cloudy,0,2013-10-04 10:53:00
7:53 AM,66.0,64.0,93,30.05,4.0,Calm,Calm,-,N/A,,Overcast,0,2013-10-04 11:53:00
8:53 AM,68.0,66.0,93,30.06,6.0,Calm,Calm,-,0.00,Rain,Light Rain,0,2013-10-04 12:53:00
9:03 AM,68.0,66.2,94,30.08,7.0,Calm,Calm,-,0.00,Rain-Thunderstorm,Light Thunderstorms and Rain,0,2013-10-04 13:03:00
9:26 AM,68.0,66.2,94,30.09,7.0,WSW,3.5,-,0.01,Rain,Light Rain,250,2013-10-04 13:26:00
9:33 AM,68.0,66.2,94,30.09,1.8,SW,3.5,-,0.05,Rain,Rain,220,2013-10-04 13:33:00
9:41 AM,68.0,66.2,94,30.09,3.0,Calm,Calm,-,0.09,Rain,Light Rain,0,2013-10-04 13:41:00
9:53 AM,69.1,66.9,93,30.06,4.0,Calm,Calm,-,0.10,Rain,Light Rain,0,2013-10-04 13:53:00
10:03 AM,69.8,66.2,88,30.08,8.0,Calm,Calm,-,0.00,Rain,Light Rain,0,2013-10-04 14:03:00
10:53 AM,69.1,66.9,93,30.07,4.0,Calm,Calm,-,0.00,Rain,Light Rain,0,2013-10-04 14:53:00
11:35 AM,69.8,68.0,94,30.09,8.0,Calm,Calm,-,0.01,Rain,Light Rain,0,2013-10-04 15:35:00
11:53 AM,70.0,68.0,93,30.07,9.0,South,3.5,-,0.01,,Overcast,170,2013-10-04 15:53:00
12:05 PM,71.6,69.8,94,30.09,7.0,South,4.6,-,N/A,,Overcast,170,2013-10-04 16:05:00
12:19 PM,71.6,69.8,94,30.08,10.0,SSE,5.8,-,N/A,,Mostly Cloudy,160,2013-10-04 16:19:00
12:53 PM,73.9,70.0,87,30.06,8.0,South,6.9,-,N/A,,Mostly Cloudy,170,2013-10-04 16:53:00
1:27 PM,75.2,69.8,83,30.08,9.0,South,9.2,-,N/A,,Mostly Cloudy,170,2013-10-04 17:27:00
1:43 PM,75.2,69.8,83,30.07,10.0,SSE,8.1,-,N/A,,Mostly Cloudy,150,2013-10-04 17:43:00
1:53 PM,75.9,70.0,82,30.05,10.0,Variable,5.8,-,N/A,,Mostly Cloudy,0,2013-10-04 17:53:00
2:14 PM,78.8,69.8,74,30.06,10.0,SSE,4.6,-,N/A,,Mostly Cloudy,150,2013-10-04 18:14:00
2:26 PM,78.8,69.8,74,30.05,10.0,SSE,6.9,-,N/A,,Scattered Clouds,160,2013-10-04 18:26:00
2:53 PM,80.1,70.0,71,30.02,10.0,South,5.8,-,N/A,,Scattered Clouds,180,2013-10-04 18:53:00
3:53 PM,80.1,68.0,67,30.01,10.0,South,6.9,-,N/A,,Mostly Cloudy,190,2013-10-04 19:53:00
4:53 PM,79.0,69.1,72,30.00,10.0,South,4.6,-,N/A,,Mostly Cloudy,180,2013-10-04 20:53:00
5:53 PM,80.1,68.0,67,30.00,10.0,South,9.2,-,0.00,,Partly Cloudy,190,2013-10-04 21:53:00
6:53 PM,77.0,68.0,74,30.00,10.0,South,4.6,-,N/A,,Mostly Cloudy,170,2013-10-04 22:53:00
7:53 PM,73.9,68.0,82,30.01,10.0,SSW,4.6,-,N/A,,Clear,200,2013-10-04 23:53:00
8:53 PM,73.0,68.0,84,30.01,10.0,SSW,3.5,-,N/A,,Scattered Clouds,200,2013-10-05 00:53:00
9:53 PM,73.0,66.9,81,30.02,10.0,South,5.8,-,N/A,,Partly Cloudy,180,2013-10-05 01:53:00
10:53 PM,72.0,66.9,84,30.03,10.0,South,6.9,-,N/A,,Partly Cloudy,190,2013-10-05 02:53:00
11:53 PM,71.1,68.0,90,30.03,10.0,SSE,4.6,-,N/A,,Scattered Clouds,160,2013-10-05 03:53:00